KSAV/SAV METAR and TAF weather

Enter ICAO airport designator
Station Type Date Time Source
KSAV METAR 2020/08/11 18:53 UTC NOAA

KSAV 111853Z VRB03KT 10SM SCT046 SCT060 BKN170 33/24 A2997 RMK AO2 SLP149 T03280239


Station Type Date Time Source
KSAV Decoded METAR 2020/08/11 18:53 UTC NOAA

SAVANNAH INTERNATIONAL AIRPORT , GA, United States (KSAV) 32-07N 81-12W 14M
Aug 11, 2020 - 02:53 PM EDT / 2020.08.11 1853 UTC
Wind: Variable at 3 MPH (3 KT):0
Visibility: 10 mile(s):0
Sky conditions: mostly cloudy
Temperature: 91.0 F (32.8 C)
Heat index: 101.5 F (38.6 C):1
Dew Point: 75.0 F (23.9 C)
Relative Humidity: 59%
Pressure (altimeter): 29.97 in. Hg (1014 hPa)
ob: KSAV 111853Z VRB03KT 10SM SCT046 SCT060 BKN170 33/24 A2997 RMK AO2 SLP149 T03280239
cycle: 19

Station Type Date Time Source
KSAV TAF 2020/08/11 18:25 UTC NOAA

TAF KSAV 111720Z 1118/1218 25006KT P6SM SCT035 BKN250
FM112000 18009KT P6SM VCTS SCT040CB
FM120100 23004KT P6SM BKN250

Example: see airport list